createdAt,value
2022-11-06T00:01:57.935Z,100631.03
2022-11-06T00:06:18.758Z,100637.28
2022-11-06T00:10:22.491Z,100627.84
2022-11-06T00:14:27.423Z,100619.88
2022-11-06T00:18:30.794Z,100612.78
2022-11-06T00:22:34.580Z,100617.25
2022-11-06T00:26:38.238Z,100602.75
2022-11-06T00:30:42.972Z,100591.03
2022-11-06T00:34:46.430Z,100581.72
2022-11-06T00:38:53.030Z,100580.53
2022-11-06T00:42:57.754Z,100583.00
2022-11-06T00:47:02.736Z,100572.53
2022-11-06T00:51:07.397Z,100567.97
2022-11-06T00:55:10.728Z,100571.75
2022-11-06T00:59:15.330Z,100568.38
2022-11-06T01:03:20.107Z,100567.34
2022-11-06T01:07:24.168Z,100568.38
2022-11-06T01:11:37.471Z,100566.25
2022-11-06T01:15:50.112Z,100564.97
2022-11-06T01:19:54.937Z,100563.00
2022-11-06T01:24:00.085Z,100566.44
2022-11-06T01:28:03.496Z,100579.09
2022-11-06T01:32:07.977Z,100577.75
2022-11-06T01:36:15.060Z,100565.22
2022-11-06T01:40:18.508Z,100563.00
2022-11-06T01:44:58.855Z,100550.00
2022-11-06T01:49:06.715Z,100563.28
2022-11-06T01:53:12.474Z,100570.88
2022-11-06T01:57:15.888Z,100561.47
2022-11-06T02:01:19.697Z,100569.25
2022-11-06T02:05:23.163Z,100566.94
2022-11-06T02:09:29.852Z,100570.41
2022-11-06T02:13:44.643Z,100566.66
2022-11-06T02:18:08.975Z,100560.19
2022-11-06T02:22:41.728Z,100557.91
2022-11-06T02:26:57.875Z,100544.50
2022-11-06T02:31:06.147Z,100540.78
2022-11-06T02:35:19.932Z,100529.94
2022-11-06T02:39:27.916Z,100533.44
2022-11-06T02:43:38.536Z,100538.13
2022-11-06T02:47:44.376Z,100541.72
2022-11-06T02:51:51.816Z,100534.28
2022-11-06T02:55:58.957Z,100529.03
2022-11-06T03:00:08.890Z,100521.56
2022-11-06T03:04:16.545Z,100504.41
2022-11-06T03:08:26.993Z,100502.72
2022-11-06T03:12:33.860Z,100505.22
2022-11-06T03:16:48.146Z,100518.47
2022-11-06T03:20:59.772Z,100517.00
2022-11-06T03:25:10.778Z,100521.00
2022-11-06T03:29:19.403Z,100530.00
2022-11-06T03:33:31.600Z,100524.72
2022-11-06T03:37:41.993Z,100527.44
2022-11-06T03:41:48.433Z,100520.88
2022-11-06T03:45:53.934Z,100507.78
2022-11-06T03:50:02.492Z,100523.13
2022-11-06T03:54:11.408Z,100505.88
2022-11-06T03:58:20.091Z,100501.31
2022-11-06T04:02:26.196Z,100496.72
2022-11-06T04:06:37.565Z,100489.88
2022-11-06T04:11:02.550Z,100474.75
2022-11-06T04:15:09.008Z,100478.78
2022-11-06T04:19:17.290Z,100470.41
2022-11-06T04:23:31.322Z,100464.09
2022-11-06T04:27:49.347Z,100467.22
2022-11-06T04:32:00.000Z,100463.44
2022-11-06T04:36:11.070Z,100462.81
2022-11-06T04:40:21.956Z,100448.13
2022-11-06T04:44:30.180Z,100448.28
2022-11-06T04:48:33.934Z,100444.25
2022-11-06T04:52:39.423Z,100437.38
2022-11-06T04:56:46.361Z,100430.00
2022-11-06T05:00:52.049Z,100421.59
2022-11-06T05:04:55.523Z,100413.59
2022-11-06T05:08:59.246Z,100409.03
2022-11-06T05:13:04.327Z,100391.81
2022-11-06T05:17:08.079Z,100407.31
2022-11-06T05:21:29.092Z,100396.59
2022-11-06T05:25:33.948Z,100398.63
2022-11-06T05:29:38.808Z,100411.41
2022-11-06T05:33:42.373Z,100406.59
2022-11-06T05:37:46.016Z,100397.31
2022-11-06T05:41:49.392Z,100399.44
2022-11-06T05:45:54.341Z,100399.81
2022-11-06T05:49:57.753Z,100394.41
2022-11-06T05:54:01.068Z,100385.78
2022-11-06T05:58:04.480Z,100379.88
2022-11-06T06:02:09.392Z,100374.50
2022-11-06T06:06:12.863Z,100384.50
2022-11-06T06:10:16.355Z,100383.56
2022-11-06T06:14:20.092Z,100378.03
2022-11-06T06:18:24.853Z,100371.25
2022-11-06T06:22:28.287Z,100372.44
2022-11-06T06:26:31.762Z,100374.25
2022-11-06T06:30:35.967Z,100380.69
2022-11-06T06:34:40.716Z,100391.56
2022-11-06T06:38:44.125Z,100381.66
2022-11-06T06:42:47.497Z,100382.44
2022-11-06T06:46:50.888Z,100386.00
2022-11-06T06:50:57.906Z,100384.09
2022-11-06T06:55:01.295Z,100391.22
2022-11-06T06:59:04.856Z,100392.41
2022-11-06T07:03:08.271Z,100383.38
2022-11-06T07:07:13.536Z,100389.41
2022-11-06T07:11:18.277Z,100380.56
2022-11-06T07:15:21.671Z,100381.63
2022-11-06T07:19:25.083Z,100379.06
2022-11-06T07:23:29.800Z,100358.03
2022-11-06T07:27:33.726Z,100349.47
2022-11-06T07:31:37.261Z,100345.88
2022-11-06T07:35:40.665Z,100326.50
2022-11-06T07:39:45.602Z,100321.09
2022-11-06T07:43:50.463Z,100334.28
2022-11-06T07:47:59.230Z,100344.63
2022-11-06T07:52:03.197Z,100343.16
2022-11-06T07:56:08.787Z,100356.59
2022-11-06T08:00:12.532Z,100352.84
2022-11-06T08:04:19.907Z,100351.94
2022-11-06T08:08:23.000Z,100332.38
2022-11-06T08:12:27.512Z,100313.31
2022-11-06T08:16:30.709Z,100321.16
2022-11-06T08:20:33.878Z,100316.38
2022-11-06T08:24:37.152Z,100327.09
2022-11-06T08:28:41.724Z,100322.19
2022-11-06T08:32:44.984Z,100312.66
2022-11-06T08:36:50.667Z,100310.78
2022-11-06T08:40:54.072Z,100301.28
2022-11-06T08:44:58.880Z,100297.41
2022-11-06T08:49:02.157Z,100294.41
2022-11-06T08:53:06.530Z,100279.69
2022-11-06T08:57:09.788Z,100280.03
2022-11-06T09:01:14.660Z,100275.34
2022-11-06T09:05:18.025Z,100264.75
2022-11-06T09:09:21.720Z,100266.44
2022-11-06T09:13:24.875Z,100265.53
2022-11-06T09:17:29.528Z,100258.38
2022-11-06T09:21:32.777Z,100239.50
2022-11-06T09:25:36.004Z,100237.63
2022-11-06T09:29:40.875Z,100227.38
2022-11-06T09:33:45.491Z,100230.28
2022-11-06T09:37:48.823Z,100239.91
2022-11-06T09:41:54.876Z,100226.91
2022-11-06T09:46:00.515Z,100221.59
2022-11-06T09:50:07.379Z,100205.41
2022-11-06T09:54:14.549Z,100203.28
2022-11-06T09:58:20.048Z,100190.00
2022-11-06T10:02:27.804Z,100190.22
2022-11-06T10:06:33.953Z,100189.19
2022-11-06T10:10:41.571Z,100183.53
2022-11-06T10:14:51.403Z,100183.69
2022-11-06T10:18:57.423Z,100179.59
2022-11-06T10:23:06.868Z,100169.34
2022-11-06T10:27:14.446Z,100179.72
2022-11-06T10:31:24.252Z,100160.63
2022-11-06T10:35:30.060Z,100161.66
2022-11-06T10:39:36.630Z,100158.28
2022-11-06T10:43:44.861Z,100144.16
2022-11-06T10:47:51.069Z,100145.25
2022-11-06T10:52:05.310Z,100134.44
2022-11-06T10:56:21.092Z,100130.28
2022-11-06T11:00:24.580Z,100118.91
2022-11-06T11:04:28.902Z,100124.47
2022-11-06T11:08:36.949Z,100118.72
2022-11-06T11:12:41.594Z,100109.56
2022-11-06T11:16:46.236Z,100092.25
2022-11-06T11:20:50.115Z,100076.84
2022-11-06T11:25:00.229Z,100063.53
2022-11-06T11:29:14.920Z,100048.13
2022-11-06T11:33:21.156Z,100045.34
2022-11-06T11:37:25.893Z,100027.72
2022-11-06T11:41:29.358Z,100013.97
2022-11-06T11:45:34.966Z,100004.09
2022-11-06T11:49:38.100Z,99991.69
2022-11-06T11:53:41.565Z,99981.88
2022-11-06T11:57:46.858Z,99981.69
2022-11-06T12:01:51.518Z,99974.09
2022-11-06T12:05:55.652Z,99963.78
2022-11-06T12:10:00.053Z,99951.41
2022-11-06T12:14:21.865Z,99943.50
2022-11-06T12:18:28.490Z,99928.59
2022-11-06T12:22:35.817Z,99923.69
2022-11-06T12:26:45.785Z,99917.47
2022-11-06T12:30:52.757Z,99913.56
2022-11-06T12:35:04.886Z,99916.75
2022-11-06T12:39:15.986Z,99926.28
2022-11-06T12:43:24.938Z,99896.84
2022-11-06T12:47:42.658Z,99894.69
2022-11-06T12:51:59.707Z,99914.19
2022-11-06T12:56:13.861Z,99905.34
2022-11-06T13:00:20.818Z,99903.13
2022-11-06T13:04:43.363Z,99885.97
2022-11-06T13:08:55.549Z,99874.53
2022-11-06T13:13:14.874Z,99883.59
2022-11-06T13:17:25.903Z,99888.72
2022-11-06T13:21:35.131Z,99887.22
2022-11-06T13:25:49.132Z,99891.53
2022-11-06T13:29:53.555Z,99876.50
2022-11-06T13:34:01.278Z,99872.00
2022-11-06T13:38:08.649Z,99859.47
2022-11-06T13:42:24.635Z,99863.41
2022-11-06T13:46:37.477Z,99872.28
2022-11-06T13:50:50.821Z,99865.88
2022-11-06T13:55:06.451Z,99862.03
2022-11-06T13:59:31.234Z,99858.59
2022-11-06T14:03:52.403Z,99867.66
2022-11-06T14:07:56.407Z,99869.94
2022-11-06T14:12:01.388Z,99870.69
2022-11-06T14:16:08.308Z,99884.19
2022-11-06T14:20:31.081Z,99870.22
2022-11-06T14:24:35.550Z,99868.59
2022-11-06T14:28:40.672Z,99882.84
2022-11-06T14:32:49.707Z,99886.00
2022-11-06T14:36:53.231Z,99874.41
2022-11-06T14:40:57.437Z,99880.22
2022-11-06T14:45:03.876Z,99879.88
2022-11-06T14:49:20.399Z,99885.75
2022-11-06T14:53:26.999Z,99896.06
2022-11-06T14:57:53.400Z,99898.09
2022-11-06T15:02:00.203Z,99906.09
2022-11-06T15:06:21.209Z,99912.56
2022-11-06T15:10:51.152Z,99925.09
2022-11-06T15:15:00.360Z,99922.38
2022-11-06T15:19:05.110Z,99911.38
2022-11-06T15:23:17.250Z,99901.19
2022-11-06T15:27:23.762Z,99894.59
2022-11-06T15:31:30.132Z,99893.34
2022-11-06T15:35:37.372Z,99833.97
2022-11-06T15:39:53.593Z,99809.66
2022-11-06T15:44:01.158Z,99829.91
2022-11-06T15:48:08.572Z,99846.28
2022-11-06T15:52:18.252Z,99853.59
2022-11-06T15:56:27.737Z,99855.47
2022-11-06T16:00:35.937Z,99860.91
2022-11-06T16:04:39.680Z,99847.53
2022-11-06T16:08:43.488Z,99830.28
2022-11-06T16:12:50.372Z,99850.06
2022-11-06T16:16:55.708Z,99835.34
2022-11-06T16:21:02.334Z,99823.19
2022-11-06T16:25:08.407Z,99829.91
2022-11-06T16:29:20.560Z,99830.94
2022-11-06T16:33:25.035Z,99845.22
2022-11-06T16:37:38.920Z,99829.34
2022-11-06T16:42:00.991Z,99817.13
2022-11-06T16:46:08.418Z,99803.25
2022-11-06T16:50:46.222Z,99797.16
2022-11-06T16:54:51.257Z,99775.47
2022-11-06T16:58:58.300Z,99774.09
2022-11-06T17:03:07.104Z,99774.59
2022-11-06T17:07:20.537Z,99771.09
2022-11-06T17:11:25.155Z,99763.75
2022-11-06T17:15:28.745Z,99752.88
2022-11-06T17:19:33.768Z,99718.91
2022-11-06T17:23:37.345Z,99689.50
2022-11-06T17:27:40.910Z,99701.19
2022-11-06T17:31:44.700Z,99696.44
2022-11-06T17:35:50.619Z,99700.22
2022-11-06T17:39:54.336Z,99705.84
2022-11-06T17:43:59.025Z,99707.88
2022-11-06T17:48:02.678Z,99700.75
2022-11-06T17:52:07.930Z,99723.66
2022-11-06T17:56:11.529Z,99707.81
2022-11-06T18:00:15.771Z,99708.56
2022-11-06T18:04:19.740Z,99707.22
2022-11-06T18:08:25.754Z,99707.03
2022-11-06T18:12:29.515Z,99704.19
2022-11-06T18:16:38.455Z,99698.84
2022-11-06T18:20:46.135Z,99685.53
2022-11-06T18:24:51.268Z,99694.78
2022-11-06T18:28:54.727Z,99694.31
2022-11-06T18:32:58.977Z,99682.94
2022-11-06T18:37:02.776Z,99701.91
2022-11-06T18:41:11.640Z,99703.97
2022-11-06T18:45:15.177Z,99704.75
2022-11-06T18:49:18.836Z,99694.28
2022-11-06T18:53:22.749Z,99696.59
2022-11-06T18:57:27.695Z,99704.81
2022-11-06T19:01:31.319Z,99708.75
2022-11-06T19:05:35.429Z,99719.91
2022-11-06T19:09:39.095Z,99705.56
2022-11-06T19:13:48.015Z,99712.09
2022-11-06T19:17:55.258Z,99712.25
2022-11-06T19:21:59.853Z,99714.31
2022-11-06T19:26:29.455Z,99712.59
2022-11-06T19:30:31.776Z,99720.13
2022-11-06T19:34:39.195Z,99732.78
2022-11-06T19:38:43.092Z,99749.19
2022-11-06T19:42:49.710Z,99729.38
2022-11-06T19:46:54.891Z,99727.84
2022-11-06T19:51:00.083Z,99735.44
2022-11-06T19:55:26.606Z,99761.63
2022-11-06T19:59:27.748Z,99762.81
2022-11-06T20:03:32.673Z,99775.44
2022-11-06T20:07:37.845Z,99782.94
2022-11-06T20:11:41.379Z,99792.59
2022-11-06T20:15:45.175Z,99799.28
2022-11-06T20:19:50.092Z,99786.19
2022-11-06T20:23:53.813Z,99793.22
2022-11-06T20:27:57.265Z,99798.69
2022-11-06T20:32:00.881Z,99802.97
2022-11-06T20:36:13.965Z,99822.63
2022-11-06T20:40:18.694Z,99817.16
2022-11-06T20:44:22.376Z,99803.47
2022-11-06T20:48:26.025Z,99816.81
2022-11-06T20:52:31.051Z,99814.31
2022-11-06T20:56:34.736Z,99826.09
2022-11-06T21:00:38.419Z,99840.13
2022-11-06T21:04:46.067Z,99836.22
2022-11-06T21:08:53.195Z,99845.13
2022-11-06T21:12:59.278Z,99862.75
2022-11-06T21:17:03.893Z,99857.91
2022-11-06T21:21:09.594Z,99874.34
2022-11-06T21:25:14.491Z,99881.88
2022-11-06T21:29:17.963Z,99861.06
2022-11-06T21:33:21.380Z,99875.19
2022-11-06T21:37:33.120Z,99864.84
2022-11-06T21:41:38.734Z,99874.75
2022-11-06T21:45:42.493Z,99868.41
2022-11-06T21:49:54.045Z,99878.91
2022-11-06T21:54:15.935Z,99883.91
2022-11-06T21:58:20.729Z,99888.56
2022-11-06T22:02:24.129Z,99892.97
2022-11-06T22:06:29.466Z,99888.75
2022-11-06T22:10:32.957Z,99890.41
2022-11-06T22:14:37.936Z,99884.19
2022-11-06T22:18:42.649Z,99882.97
2022-11-06T22:22:46.036Z,99901.53
2022-11-06T22:26:49.496Z,99897.06
2022-11-06T22:30:54.282Z,99917.31
2022-11-06T22:34:57.679Z,99910.00
2022-11-06T22:39:07.144Z,99912.91
2022-11-06T22:43:10.641Z,99921.00
2022-11-06T22:47:15.631Z,99922.44
2022-11-06T22:51:20.359Z,99920.28
2022-11-06T22:55:23.665Z,99910.41
2022-11-06T22:59:27.359Z,99913.63
2022-11-06T23:03:32.412Z,99918.38
2022-11-06T23:07:35.781Z,99923.84
2022-11-06T23:11:39.115Z,99922.75
2022-11-06T23:15:42.600Z,99918.38
2022-11-06T23:19:47.454Z,99931.47
2022-11-06T23:23:51.166Z,99933.34
2022-11-06T23:27:55.028Z,99950.63
2022-11-06T23:31:58.359Z,99936.66
2022-11-06T23:36:07.476Z,99942.13
2022-11-06T23:40:12.529Z,99960.69
2022-11-06T23:44:33.894Z,99958.59
2022-11-06T23:48:37.286Z,99955.94
2022-11-06T23:52:42.029Z,99963.97
2022-11-06T23:56:45.369Z,99964.88
